sensor_id;sensor_type;location;lat;lon;timestamp;P1;durP1;ratioP1;P2;durP2;ratioP2
67986;SDS011;54767;53.800;15.956;2023-08-20T00:01:04;13.30;;;10.30;;
67986;SDS011;54767;53.800;15.956;2023-08-20T00:03:48;13.90;;;10.10;;
67986;SDS011;54767;53.800;15.956;2023-08-20T00:06:17;13.30;;;10.40;;
67986;SDS011;54767;53.800;15.956;2023-08-20T00:08:44;14.10;;;10.10;;
67986;SDS011;54767;53.800;15.956;2023-08-20T00:11:11;12.90;;;10.20;;
67986;SDS011;54767;53.800;15.956;2023-08-20T00:13:39;11.50;;;10.30;;
67986;SDS011;54767;53.800;15.956;2023-08-20T00:16:07;13.60;;;10.50;;
67986;SDS011;54767;53.800;15.956;2023-08-20T00:18:35;12.90;;;9.40;;
67986;SDS011;54767;53.800;15.956;2023-08-20T00:21:05;12.60;;;9.30;;
67986;SDS011;54767;53.800;15.956;2023-08-20T00:23:33;11.50;;;9.10;;
67986;SDS011;54767;53.800;15.956;2023-08-20T00:26:01;12.40;;;9.40;;
67986;SDS011;54767;53.800;15.956;2023-08-20T00:28:29;11.30;;;10.10;;
67986;SDS011;54767;53.800;15.956;2023-08-20T00:30:56;13.50;;;9.70;;
67986;SDS011;54767;53.800;15.956;2023-08-20T00:33:23;11.30;;;9.40;;
67986;SDS011;54767;53.800;15.956;2023-08-20T00:35:50;10.80;;;9.40;;
67986;SDS011;54767;53.800;15.956;2023-08-20T00:38:17;10.40;;;9.00;;
67986;SDS011;54767;53.800;15.956;2023-08-20T00:40:44;12.10;;;9.50;;
67986;SDS011;54767;53.800;15.956;2023-08-20T00:43:12;13.20;;;10.00;;
67986;SDS011;54767;53.800;15.956;2023-08-20T00:45:40;9.70;;;8.70;;
67986;SDS011;54767;53.800;15.956;2023-08-20T00:48:08;10.00;;;8.90;;
67986;SDS011;54767;53.800;15.956;2023-08-20T00:50:38;11.80;;;9.20;;
67986;SDS011;54767;53.800;15.956;2023-08-20T00:53:07;11.40;;;9.40;;
67986;SDS011;54767;53.800;15.956;2023-08-20T00:55:37;12.40;;;9.40;;
67986;SDS011;54767;53.800;15.956;2023-08-20T00:58:04;12.90;;;9.40;;
67986;SDS011;54767;53.800;15.956;2023-08-20T01:00:31;12.70;;;9.10;;
67986;SDS011;54767;53.800;15.956;2023-08-20T01:02:58;12.40;;;9.00;;
67986;SDS011;54767;53.800;15.956;2023-08-20T01:05:26;10.80;;;9.10;;
67986;SDS011;54767;53.800;15.956;2023-08-20T01:08:02;12.00;;;9.20;;
67986;SDS011;54767;53.800;15.956;2023-08-20T01:10:36;13.00;;;9.60;;
67986;SDS011;54767;53.800;15.956;2023-08-20T01:13:19;13.10;;;9.50;;
67986;SDS011;54767;53.800;15.956;2023-08-20T01:15:46;12.20;;;8.70;;
67986;SDS011;54767;53.800;15.956;2023-08-20T01:18:13;10.60;;;8.90;;
67986;SDS011;54767;53.800;15.956;2023-08-20T01:20:41;11.10;;;9.70;;
67986;SDS011;54767;53.800;15.956;2023-08-20T01:29:42;12.30;;;10.00;;
67986;SDS011;54767;53.800;15.956;2023-08-20T01:32:10;13.40;;;9.70;;
67986;SDS011;54767;53.800;15.956;2023-08-20T01:34:38;12.80;;;9.60;;
67986;SDS011;54767;53.800;15.956;2023-08-20T01:37:05;13.60;;;9.90;;
67986;SDS011;54767;53.800;15.956;2023-08-20T01:39:32;11.80;;;10.00;;
67986;SDS011;54767;53.800;15.956;2023-08-20T01:41:59;14.40;;;10.10;;
67986;SDS011;54767;53.800;15.956;2023-08-20T01:44:26;12.90;;;9.90;;
67986;SDS011;54767;53.800;15.956;2023-08-20T01:46:53;13.40;;;9.60;;
67986;SDS011;54767;53.800;15.956;2023-08-20T01:49:20;14.00;;;9.90;;
67986;SDS011;54767;53.800;15.956;2023-08-20T01:51:48;15.40;;;10.20;;
67986;SDS011;54767;53.800;15.956;2023-08-20T01:54:15;11.60;;;10.30;;
67986;SDS011;54767;53.800;15.956;2023-08-20T01:56:42;15.20;;;10.00;;
67986;SDS011;54767;53.800;15.956;2023-08-20T01:59:09;12.50;;;9.50;;
67986;SDS011;54767;53.800;15.956;2023-08-20T02:01:35;12.70;;;9.50;;
67986;SDS011;54767;53.800;15.956;2023-08-20T02:04:02;11.90;;;9.80;;
67986;SDS011;54767;53.800;15.956;2023-08-20T02:06:29;15.40;;;10.30;;
67986;SDS011;54767;53.800;15.956;2023-08-20T02:08:56;13.80;;;9.60;;
67986;SDS011;54767;53.800;15.956;2023-08-20T02:11:24;13.90;;;9.90;;
67986;SDS011;54767;53.800;15.956;2023-08-20T02:13:51;10.60;;;8.80;;
67986;SDS011;54767;53.800;15.956;2023-08-20T02:16:18;12.20;;;9.60;;
67986;SDS011;54767;53.800;15.956;2023-08-20T02:18:45;12.60;;;10.00;;
67986;SDS011;54767;53.800;15.956;2023-08-20T02:21:13;13.50;;;10.00;;
67986;SDS011;54767;53.800;15.956;2023-08-20T02:23:39;13.10;;;10.40;;
67986;SDS011;54767;53.800;15.956;2023-08-20T02:26:06;13.10;;;10.10;;
67986;SDS011;54767;53.800;15.956;2023-08-20T02:28:33;12.00;;;10.00;;
67986;SDS011;54767;53.800;15.956;2023-08-20T02:31:03;13.70;;;9.70;;
67986;SDS011;54767;53.800;15.956;2023-08-20T02:33:31;12.20;;;9.80;;
67986;SDS011;54767;53.800;15.956;2023-08-20T02:36:02;11.40;;;9.90;;
67986;SDS011;54767;53.800;15.956;2023-08-20T02:38:30;12.60;;;9.90;;
67986;SDS011;54767;53.800;15.956;2023-08-20T02:40:57;12.10;;;10.30;;
67986;SDS011;54767;53.800;15.956;2023-08-20T02:43:24;11.50;;;9.90;;
67986;SDS011;54767;53.800;15.956;2023-08-20T02:45:51;12.60;;;10.40;;
67986;SDS011;54767;53.800;15.956;2023-08-20T02:48:18;15.70;;;10.70;;
67986;SDS011;54767;53.800;15.956;2023-08-20T02:50:45;12.10;;;9.70;;
67986;SDS011;54767;53.800;15.956;2023-08-20T02:53:12;14.00;;;10.50;;
67986;SDS011;54767;53.800;15.956;2023-08-20T02:55:40;13.70;;;10.40;;
67986;SDS011;54767;53.800;15.956;2023-08-20T02:58:08;14.70;;;10.60;;
67986;SDS011;54767;53.800;15.956;2023-08-20T03:00:35;13.50;;;10.70;;
67986;SDS011;54767;53.800;15.956;2023-08-20T03:03:03;12.90;;;10.30;;
67986;SDS011;54767;53.800;15.956;2023-08-20T03:05:34;11.60;;;10.00;;
67986;SDS011;54767;53.800;15.956;2023-08-20T03:08:01;12.50;;;10.40;;
67986;SDS011;54767;53.800;15.956;2023-08-20T03:10:28;13.00;;;10.90;;
67986;SDS011;54767;53.800;15.956;2023-08-20T03:12:55;14.50;;;11.00;;
67986;SDS011;54767;53.800;15.956;2023-08-20T03:15:22;13.50;;;11.00;;
67986;SDS011;54767;53.800;15.956;2023-08-20T03:17:49;13.80;;;12.30;;
67986;SDS011;54767;53.800;15.956;2023-08-20T03:20:16;13.80;;;10.70;;
67986;SDS011;54767;53.800;15.956;2023-08-20T03:22:43;14.70;;;10.80;;
67986;SDS011;54767;53.800;15.956;2023-08-20T03:25:10;13.90;;;10.50;;
67986;SDS011;54767;53.800;15.956;2023-08-20T03:27:37;14.00;;;10.40;;
67986;SDS011;54767;53.800;15.956;2023-08-20T03:30:05;12.50;;;10.10;;
67986;SDS011;54767;53.800;15.956;2023-08-20T03:32:33;13.00;;;10.60;;
67986;SDS011;54767;53.800;15.956;2023-08-20T03:35:00;16.50;;;12.70;;
67986;SDS011;54767;53.800;15.956;2023-08-20T03:37:28;17.60;;;12.60;;
67986;SDS011;54767;53.800;15.956;2023-08-20T03:39:55;20.10;;;13.50;;
67986;SDS011;54767;53.800;15.956;2023-08-20T03:42:22;19.10;;;14.30;;
67986;SDS011;54767;53.800;15.956;2023-08-20T03:44:49;18.90;;;15.40;;
67986;SDS011;54767;53.800;15.956;2023-08-20T03:47:16;19.60;;;16.20;;
67986;SDS011;54767;53.800;15.956;2023-08-20T03:49:47;20.50;;;15.30;;
67986;SDS011;54767;53.800;15.956;2023-08-20T03:52:17;16.30;;;14.10;;
67986;SDS011;54767;53.800;15.956;2023-08-20T03:54:44;19.40;;;15.40;;
67986;SDS011;54767;53.800;15.956;2023-08-20T03:57:11;17.20;;;14.40;;
67986;SDS011;54767;53.800;15.956;2023-08-20T03:59:38;19.90;;;14.20;;
67986;SDS011;54767;53.800;15.956;2023-08-20T04:02:04;17.10;;;14.10;;
67986;SDS011;54767;53.800;15.956;2023-08-20T04:04:31;15.80;;;13.30;;
67986;SDS011;54767;53.800;15.956;2023-08-20T04:06:59;16.90;;;13.90;;
67986;SDS011;54767;53.800;15.956;2023-08-20T04:09:26;16.90;;;13.50;;
67986;SDS011;54767;53.800;15.956;2023-08-20T04:11:53;16.60;;;13.40;;
67986;SDS011;54767;53.800;15.956;2023-08-20T04:14:20;15.30;;;12.90;;
67986;SDS011;54767;53.800;15.956;2023-08-20T04:16:47;15.20;;;12.80;;
67986;SDS011;54767;53.800;15.956;2023-08-20T04:19:14;14.10;;;12.50;;
67986;SDS011;54767;53.800;15.956;2023-08-20T04:21:41;15.10;;;12.20;;
67986;SDS011;54767;53.800;15.956;2023-08-20T04:24:08;17.20;;;12.50;;
67986;SDS011;54767;53.800;15.956;2023-08-20T04:26:35;16.40;;;13.00;;
67986;SDS011;54767;53.800;15.956;2023-08-20T04:29:02;14.60;;;12.40;;
67986;SDS011;54767;53.800;15.956;2023-08-20T04:31:29;14.80;;;11.90;;
67986;SDS011;54767;53.800;15.956;2023-08-20T04:33:56;14.60;;;12.00;;
67986;SDS011;54767;53.800;15.956;2023-08-20T04:36:23;14.40;;;12.50;;
67986;SDS011;54767;53.800;15.956;2023-08-20T04:38:50;15.00;;;12.50;;
67986;SDS011;54767;53.800;15.956;2023-08-20T04:41:17;13.60;;;11.80;;
67986;SDS011;54767;53.800;15.956;2023-08-20T04:43:44;16.70;;;12.60;;
67986;SDS011;54767;53.800;15.956;2023-08-20T04:46:11;16.80;;;12.40;;
67986;SDS011;54767;53.800;15.956;2023-08-20T04:48:38;14.30;;;11.80;;
67986;SDS011;54767;53.800;15.956;2023-08-20T04:51:05;13.60;;;11.50;;
67986;SDS011;54767;53.800;15.956;2023-08-20T04:53:32;13.10;;;11.00;;
67986;SDS011;54767;53.800;15.956;2023-08-20T04:55:59;12.40;;;10.70;;
67986;SDS011;54767;53.800;15.956;2023-08-20T04:58:26;12.50;;;10.00;;
67986;SDS011;54767;53.800;15.956;2023-08-20T05:00:53;11.70;;;9.70;;
67986;SDS011;54767;53.800;15.956;2023-08-20T05:03:20;10.90;;;9.80;;
67986;SDS011;54767;53.800;15.956;2023-08-20T05:05:48;13.30;;;9.60;;
67986;SDS011;54767;53.800;15.956;2023-08-20T05:08:16;14.00;;;9.70;;
67986;SDS011;54767;53.800;15.956;2023-08-20T05:10:43;11.80;;;9.30;;
67986;SDS011;54767;53.800;15.956;2023-08-20T05:13:11;10.30;;;9.00;;
67986;SDS011;54767;53.800;15.956;2023-08-20T05:15:38;10.30;;;9.10;;
67986;SDS011;54767;53.800;15.956;2023-08-20T05:18:05;9.80;;;8.80;;
67986;SDS011;54767;53.800;15.956;2023-08-20T05:20:32;11.40;;;8.80;;
67986;SDS011;54767;53.800;15.956;2023-08-20T05:23:00;10.10;;;9.00;;
67986;SDS011;54767;53.800;15.956;2023-08-20T05:25:27;11.00;;;8.60;;
67986;SDS011;54767;53.800;15.956;2023-08-20T05:27:54;11.20;;;8.90;;
67986;SDS011;54767;53.800;15.956;2023-08-20T05:30:21;10.30;;;8.90;;
67986;SDS011;54767;53.800;15.956;2023-08-20T05:32:47;12.30;;;9.70;;
67986;SDS011;54767;53.800;15.956;2023-08-20T05:35:14;11.40;;;9.30;;
67986;SDS011;54767;53.800;15.956;2023-08-20T05:37:41;9.70;;;8.70;;
67986;SDS011;54767;53.800;15.956;2023-08-20T05:40:09;10.80;;;9.70;;
67986;SDS011;54767;53.800;15.956;2023-08-20T05:42:36;11.70;;;10.00;;
67986;SDS011;54767;53.800;15.956;2023-08-20T05:45:04;11.40;;;9.90;;
67986;SDS011;54767;53.800;15.956;2023-08-20T05:47:31;12.10;;;9.50;;
67986;SDS011;54767;53.800;15.956;2023-08-20T05:49:58;11.10;;;9.90;;
67986;SDS011;54767;53.800;15.956;2023-08-20T05:52:25;12.20;;;10.00;;
67986;SDS011;54767;53.800;15.956;2023-08-20T05:54:52;12.40;;;9.50;;
67986;SDS011;54767;53.800;15.956;2023-08-20T05:57:19;10.50;;;9.40;;
67986;SDS011;54767;53.800;15.956;2023-08-20T05:59:47;10.20;;;9.10;;
67986;SDS011;54767;53.800;15.956;2023-08-20T06:02:16;11.50;;;10.00;;
67986;SDS011;54767;53.800;15.956;2023-08-20T06:04:46;11.40;;;10.10;;
67986;SDS011;54767;53.800;15.956;2023-08-20T06:07:13;12.30;;;9.70;;
67986;SDS011;54767;53.800;15.956;2023-08-20T06:09:40;12.10;;;10.10;;
67986;SDS011;54767;53.800;15.956;2023-08-20T06:12:07;11.10;;;9.80;;
67986;SDS011;54767;53.800;15.956;2023-08-20T06:14:34;11.30;;;10.00;;
67986;SDS011;54767;53.800;15.956;2023-08-20T06:17:01;12.10;;;10.00;;
67986;SDS011;54767;53.800;15.956;2023-08-20T06:19:29;11.70;;;10.10;;
67986;SDS011;54767;53.800;15.956;2023-08-20T06:21:56;11.70;;;10.00;;
67986;SDS011;54767;53.800;15.956;2023-08-20T06:24:23;15.40;;;10.80;;
67986;SDS011;54767;53.800;15.956;2023-08-20T06:26:51;11.80;;;10.20;;
67986;SDS011;54767;53.800;15.956;2023-08-20T06:29:18;11.30;;;10.10;;
67986;SDS011;54767;53.800;15.956;2023-08-20T06:31:45;10.80;;;9.60;;
67986;SDS011;54767;53.800;15.956;2023-08-20T06:34:12;11.40;;;10.00;;
67986;SDS011;54767;53.800;15.956;2023-08-20T06:36:39;10.70;;;9.60;;
67986;SDS011;54767;53.800;15.956;2023-08-20T06:39:06;10.50;;;9.10;;
67986;SDS011;54767;53.800;15.956;2023-08-20T06:41:33;10.40;;;9.30;;
67986;SDS011;54767;53.800;15.956;2023-08-20T06:44:01;11.60;;;9.60;;
67986;SDS011;54767;53.800;15.956;2023-08-20T06:46:29;12.30;;;9.40;;
67986;SDS011;54767;53.800;15.956;2023-08-20T06:48:56;13.00;;;9.50;;
67986;SDS011;54767;53.800;15.956;2023-08-20T06:51:23;10.30;;;8.70;;
67986;SDS011;54767;53.800;15.956;2023-08-20T06:53:52;11.30;;;9.40;;
67986;SDS011;54767;53.800;15.956;2023-08-20T06:56:19;12.20;;;9.50;;
67986;SDS011;54767;53.800;15.956;2023-08-20T06:58:46;10.80;;;9.20;;
67986;SDS011;54767;53.800;15.956;2023-08-20T07:01:13;11.30;;;10.00;;
67986;SDS011;54767;53.800;15.956;2023-08-20T07:03:40;11.60;;;10.30;;
67986;SDS011;54767;53.800;15.956;2023-08-20T07:06:09;10.50;;;9.20;;
67986;SDS011;54767;53.800;15.956;2023-08-20T07:08:37;11.00;;;9.90;;
67986;SDS011;54767;53.800;15.956;2023-08-20T07:11:08;10.80;;;9.60;;
67986;SDS011;54767;53.800;15.956;2023-08-20T07:13:35;11.40;;;9.30;;
67986;SDS011;54767;53.800;15.956;2023-08-20T07:16:02;11.20;;;10.00;;
67986;SDS011;54767;53.800;15.956;2023-08-20T07:18:30;11.00;;;9.10;;
67986;SDS011;54767;53.800;15.956;2023-08-20T07:20:57;10.50;;;9.40;;
67986;SDS011;54767;53.800;15.956;2023-08-20T07:23:24;10.20;;;9.10;;
67986;SDS011;54767;53.800;15.956;2023-08-20T07:25:52;10.60;;;9.30;;
67986;SDS011;54767;53.800;15.956;2023-08-20T07:28:31;10.50;;;9.40;;
67986;SDS011;54767;53.800;15.956;2023-08-20T07:31:17;11.80;;;10.10;;
67986;SDS011;54767;53.800;15.956;2023-08-20T07:33:48;11.70;;;10.30;;
67986;SDS011;54767;53.800;15.956;2023-08-20T07:36:16;11.20;;;9.70;;
67986;SDS011;54767;53.800;15.956;2023-08-20T07:38:44;11.60;;;10.20;;
67986;SDS011;54767;53.800;15.956;2023-08-20T07:41:11;11.60;;;10.10;;
67986;SDS011;54767;53.800;15.956;2023-08-20T07:43:38;12.40;;;9.90;;
67986;SDS011;54767;53.800;15.956;2023-08-20T07:46:06;10.50;;;9.40;;
67986;SDS011;54767;53.800;15.956;2023-08-20T07:48:35;11.50;;;9.80;;
67986;SDS011;54767;53.800;15.956;2023-08-20T07:51:02;10.60;;;9.50;;
67986;SDS011;54767;53.800;15.956;2023-08-20T07:53:30;11.70;;;9.90;;
67986;SDS011;54767;53.800;15.956;2023-08-20T07:55:58;10.90;;;9.70;;
67986;SDS011;54767;53.800;15.956;2023-08-20T07:58:27;12.10;;;9.80;;
67986;SDS011;54767;53.800;15.956;2023-08-20T08:00:57;11.40;;;10.20;;
67986;SDS011;54767;53.800;15.956;2023-08-20T08:03:30;12.10;;;10.20;;
67986;SDS011;54767;53.800;15.956;2023-08-20T08:05:58;11.50;;;9.80;;
67986;SDS011;54767;53.800;15.956;2023-08-20T08:08:25;11.00;;;9.70;;
67986;SDS011;54767;53.800;15.956;2023-08-20T08:10:52;12.50;;;10.50;;
67986;SDS011;54767;53.800;15.956;2023-08-20T08:13:21;11.30;;;9.90;;
67986;SDS011;54767;53.800;15.956;2023-08-20T08:15:50;10.90;;;9.70;;
67986;SDS011;54767;53.800;15.956;2023-08-20T08:18:18;11.00;;;9.90;;
67986;SDS011;54767;53.800;15.956;2023-08-20T08:20:46;11.90;;;10.60;;
67986;SDS011;54767;53.800;15.956;2023-08-20T08:23:13;10.50;;;9.50;;
67986;SDS011;54767;53.800;15.956;2023-08-20T08:25:40;11.20;;;9.90;;
67986;SDS011;54767;53.800;15.956;2023-08-20T08:28:08;10.90;;;9.80;;
67986;SDS011;54767;53.800;15.956;2023-08-20T08:30:35;10.70;;;9.30;;
67986;SDS011;54767;53.800;15.956;2023-08-20T08:33:04;11.10;;;9.40;;
67986;SDS011;54767;53.800;15.956;2023-08-20T08:36:18;10.50;;;9.30;;
67986;SDS011;54767;53.800;15.956;2023-08-20T08:38:46;10.10;;;9.10;;
67986;SDS011;54767;53.800;15.956;2023-08-20T08:41:13;9.90;;;8.90;;
67986;SDS011;54767;53.800;15.956;2023-08-20T08:43:41;10.50;;;8.60;;
67986;SDS011;54767;53.800;15.956;2023-08-20T08:46:17;9.00;;;8.20;;
67986;SDS011;54767;53.800;15.956;2023-08-20T08:48:45;9.20;;;8.30;;
67986;SDS011;54767;53.800;15.956;2023-08-20T08:51:14;9.70;;;8.70;;
67986;SDS011;54767;53.800;15.956;2023-08-20T08:53:42;10.60;;;8.60;;
67986;SDS011;54767;53.800;15.956;2023-08-20T08:56:10;10.10;;;9.00;;
67986;SDS011;54767;53.800;15.956;2023-08-20T08:58:38;9.70;;;8.20;;
67986;SDS011;54767;53.800;15.956;2023-08-20T09:01:05;12.20;;;8.90;;
67986;SDS011;54767;53.800;15.956;2023-08-20T09:03:32;10.00;;;8.80;;
67986;SDS011;54767;53.800;15.956;2023-08-20T09:05:59;10.60;;;8.30;;
67986;SDS011;54767;53.800;15.956;2023-08-20T09:08:30;9.80;;;8.20;;
67986;SDS011;54767;53.800;15.956;2023-08-20T09:11:00;9.50;;;8.40;;
67986;SDS011;54767;53.800;15.956;2023-08-20T09:13:41;9.00;;;8.10;;
67986;SDS011;54767;53.800;15.956;2023-08-20T09:16:11;9.30;;;8.00;;
67986;SDS011;54767;53.800;15.956;2023-08-20T09:18:39;10.70;;;9.30;;
67986;SDS011;54767;53.800;15.956;2023-08-20T09:21:13;9.70;;;8.70;;
67986;SDS011;54767;53.800;15.956;2023-08-20T09:23:45;9.50;;;8.60;;
67986;SDS011;54767;53.800;15.956;2023-08-20T09:26:12;10.50;;;9.10;;
67986;SDS011;54767;53.800;15.956;2023-08-20T09:28:42;9.80;;;8.80;;
67986;SDS011;54767;53.800;15.956;2023-08-20T09:31:11;10.10;;;9.20;;
67986;SDS011;54767;53.800;15.956;2023-08-20T09:33:52;11.20;;;10.00;;
67986;SDS011;54767;53.800;15.956;2023-08-20T09:36:31;11.90;;;9.80;;
67986;SDS011;54767;53.800;15.956;2023-08-20T09:39:01;10.40;;;9.40;;
67986;SDS011;54767;53.800;15.956;2023-08-20T09:41:29;10.90;;;9.90;;
67986;SDS011;54767;53.800;15.956;2023-08-20T09:43:57;10.00;;;8.90;;
67986;SDS011;54767;53.800;15.956;2023-08-20T09:46:26;10.40;;;9.40;;
67986;SDS011;54767;53.800;15.956;2023-08-20T09:51:26;12.50;;;10.30;;
67986;SDS011;54767;53.800;15.956;2023-08-20T09:54:11;11.50;;;10.10;;
67986;SDS011;54767;53.800;15.956;2023-08-20T09:56:51;11.00;;;9.90;;
67986;SDS011;54767;53.800;15.956;2023-08-20T09:59:21;11.00;;;9.90;;
67986;SDS011;54767;53.800;15.956;2023-08-20T10:01:48;11.80;;;10.60;;
67986;SDS011;54767;53.800;15.956;2023-08-20T10:04:17;11.20;;;10.10;;
67986;SDS011;54767;53.800;15.956;2023-08-20T10:06:46;11.30;;;10.10;;
67986;SDS011;54767;53.800;15.956;2023-08-20T10:09:13;11.40;;;10.20;;
67986;SDS011;54767;53.800;15.956;2023-08-20T10:11:40;11.70;;;10.50;;
67986;SDS011;54767;53.800;15.956;2023-08-20T10:14:08;11.70;;;10.50;;
67986;SDS011;54767;53.800;15.956;2023-08-20T10:16:35;11.40;;;10.00;;
67986;SDS011;54767;53.800;15.956;2023-08-20T10:19:03;12.50;;;9.90;;
67986;SDS011;54767;53.800;15.956;2023-08-20T10:21:32;10.50;;;9.40;;
67986;SDS011;54767;53.800;15.956;2023-08-20T10:24:03;10.00;;;9.00;;
67986;SDS011;54767;53.800;15.956;2023-08-20T10:26:34;10.50;;;9.40;;
67986;SDS011;54767;53.800;15.956;2023-08-20T10:32:16;10.20;;;9.20;;
67986;SDS011;54767;53.800;15.956;2023-08-20T10:34:47;10.90;;;9.80;;
67986;SDS011;54767;53.800;15.956;2023-08-20T10:37:25;11.70;;;10.40;;
67986;SDS011;54767;53.800;15.956;2023-08-20T10:39:55;11.40;;;10.10;;
67986;SDS011;54767;53.800;15.956;2023-08-20T10:42:25;11.00;;;9.90;;
67986;SDS011;54767;53.800;15.956;2023-08-20T10:44:56;10.60;;;9.50;;
67986;SDS011;54767;53.800;15.956;2023-08-20T10:47:43;9.90;;;9.00;;
67986;SDS011;54767;53.800;15.956;2023-08-20T10:50:15;11.20;;;10.10;;
67986;SDS011;54767;53.800;15.956;2023-08-20T10:52:47;11.20;;;9.90;;
67986;SDS011;54767;53.800;15.956;2023-08-20T10:55:16;11.20;;;10.10;;
67986;SDS011;54767;53.800;15.956;2023-08-20T10:57:56;11.30;;;9.40;;
67986;SDS011;54767;53.800;15.956;2023-08-20T11:00:24;11.00;;;9.90;;
67986;SDS011;54767;53.800;15.956;2023-08-20T11:02:52;10.80;;;9.60;;
67986;SDS011;54767;53.800;15.956;2023-08-20T11:05:20;11.40;;;10.30;;
67986;SDS011;54767;53.800;15.956;2023-08-20T11:07:50;11.10;;;9.90;;
67986;SDS011;54767;53.800;15.956;2023-08-20T11:10:17;10.60;;;9.50;;
67986;SDS011;54767;53.800;15.956;2023-08-20T11:12:47;10.30;;;9.30;;
67986;SDS011;54767;53.800;15.956;2023-08-20T11:15:14;10.00;;;9.00;;
67986;SDS011;54767;53.800;15.956;2023-08-20T11:17:42;10.30;;;9.20;;
67986;SDS011;54767;53.800;15.956;2023-08-20T11:20:16;10.60;;;9.50;;
67986;SDS011;54767;53.800;15.956;2023-08-20T11:22:44;10.30;;;9.20;;
67986;SDS011;54767;53.800;15.956;2023-08-20T11:25:11;10.30;;;9.10;;
67986;SDS011;54767;53.800;15.956;2023-08-20T11:27:43;9.60;;;8.40;;
67986;SDS011;54767;53.800;15.956;2023-08-20T11:30:11;10.30;;;8.70;;
67986;SDS011;54767;53.800;15.956;2023-08-20T11:32:41;10.80;;;8.70;;
67986;SDS011;54767;53.800;15.956;2023-08-20T11:35:10;9.70;;;8.10;;
67986;SDS011;54767;53.800;15.956;2023-08-20T11:37:39;9.50;;;8.40;;
67986;SDS011;54767;53.800;15.956;2023-08-20T11:40:07;9.40;;;8.50;;
67986;SDS011;54767;53.800;15.956;2023-08-20T11:42:34;9.90;;;8.60;;
67986;SDS011;54767;53.800;15.956;2023-08-20T11:45:01;10.00;;;9.00;;
67986;SDS011;54767;53.800;15.956;2023-08-20T11:47:29;9.60;;;8.70;;
67986;SDS011;54767;53.800;15.956;2023-08-20T11:50:05;9.80;;;8.50;;
67986;SDS011;54767;53.800;15.956;2023-08-20T11:52:32;9.20;;;8.30;;
67986;SDS011;54767;53.800;15.956;2023-08-20T11:55:00;9.50;;;8.60;;
67986;SDS011;54767;53.800;15.956;2023-08-20T11:57:28;9.70;;;8.40;;
67986;SDS011;54767;53.800;15.956;2023-08-20T12:00:01;11.20;;;9.10;;
67986;SDS011;54767;53.800;15.956;2023-08-20T12:02:35;10.90;;;9.40;;
67986;SDS011;54767;53.800;15.956;2023-08-20T12:05:07;10.30;;;9.20;;
67986;SDS011;54767;53.800;15.956;2023-08-20T12:07:34;10.60;;;9.10;;
67986;SDS011;54767;53.800;15.956;2023-08-20T12:10:23;10.80;;;9.30;;
67986;SDS011;54767;53.800;15.956;2023-08-20T12:12:49;13.70;;;10.60;;
67986;SDS011;54767;53.800;15.956;2023-08-20T12:15:17;13.80;;;11.10;;
67986;SDS011;54767;53.800;15.956;2023-08-20T12:17:55;12.80;;;10.70;;
67986;SDS011;54767;53.800;15.956;2023-08-20T12:20:23;13.20;;;10.60;;
67986;SDS011;54767;53.800;15.956;2023-08-20T12:25:19;11.70;;;10.00;;
67986;SDS011;54767;53.800;15.956;2023-08-20T12:27:47;13.20;;;11.00;;
67986;SDS011;54767;53.800;15.956;2023-08-20T12:30:14;12.10;;;10.70;;
67986;SDS011;54767;53.800;15.956;2023-08-20T12:32:41;12.60;;;10.60;;
67986;SDS011;54767;53.800;15.956;2023-08-20T12:35:08;12.40;;;10.50;;
67986;SDS011;54767;53.800;15.956;2023-08-20T12:37:34;12.50;;;11.10;;
67986;SDS011;54767;53.800;15.956;2023-08-20T12:40:02;12.30;;;10.30;;
67986;SDS011;54767;53.800;15.956;2023-08-20T12:42:31;13.90;;;11.10;;
67986;SDS011;54767;53.800;15.956;2023-08-20T12:44:58;14.50;;;10.90;;
67986;SDS011;54767;53.800;15.956;2023-08-20T12:47:26;13.40;;;10.70;;
67986;SDS011;54767;53.800;15.956;2023-08-20T12:49:53;12.20;;;10.00;;
67986;SDS011;54767;53.800;15.956;2023-08-20T12:52:20;11.60;;;10.20;;
67986;SDS011;54767;53.800;15.956;2023-08-20T12:54:47;12.90;;;10.30;;
67986;SDS011;54767;53.800;15.956;2023-08-20T12:57:14;13.20;;;10.10;;
67986;SDS011;54767;53.800;15.956;2023-08-20T12:59:41;11.80;;;9.70;;
67986;SDS011;54767;53.800;15.956;2023-08-20T13:02:08;9.50;;;8.30;;
67986;SDS011;54767;53.800;15.956;2023-08-20T13:04:35;11.10;;;9.30;;
67986;SDS011;54767;53.800;15.956;2023-08-20T13:07:03;10.40;;;8.80;;
67986;SDS011;54767;53.800;15.956;2023-08-20T13:09:30;10.70;;;9.50;;
67986;SDS011;54767;53.800;15.956;2023-08-20T13:11:58;10.80;;;8.60;;
67986;SDS011;54767;53.800;15.956;2023-08-20T13:14:41;11.00;;;9.00;;
67986;SDS011;54767;53.800;15.956;2023-08-20T13:17:24;9.60;;;8.60;;
67986;SDS011;54767;53.800;15.956;2023-08-20T13:19:51;9.90;;;8.80;;
67986;SDS011;54767;53.800;15.956;2023-08-20T13:22:18;12.60;;;9.50;;
67986;SDS011;54767;53.800;15.956;2023-08-20T13:24:45;9.40;;;8.20;;
67986;SDS011;54767;53.800;15.956;2023-08-20T13:27:12;11.00;;;9.50;;
67986;SDS011;54767;53.800;15.956;2023-08-20T13:29:40;9.80;;;8.70;;
67986;SDS011;54767;53.800;15.956;2023-08-20T13:32:07;10.10;;;9.10;;
67986;SDS011;54767;53.800;15.956;2023-08-20T13:35:10;12.20;;;10.50;;
67986;SDS011;54767;53.800;15.956;2023-08-20T13:38:14;10.80;;;9.60;;
67986;SDS011;54767;53.800;15.956;2023-08-20T13:40:42;10.50;;;9.20;;
67986;SDS011;54767;53.800;15.956;2023-08-20T13:43:29;10.40;;;9.20;;
67986;SDS011;54767;53.800;15.956;2023-08-20T13:45:56;12.60;;;9.80;;
67986;SDS011;54767;53.800;15.956;2023-08-20T13:48:26;12.20;;;10.20;;
67986;SDS011;54767;53.800;15.956;2023-08-20T13:50:53;12.10;;;9.70;;
67986;SDS011;54767;53.800;15.956;2023-08-20T13:53:23;10.30;;;8.70;;
67986;SDS011;54767;53.800;15.956;2023-08-20T13:56:03;10.70;;;8.70;;
67986;SDS011;54767;53.800;15.956;2023-08-20T13:58:30;10.20;;;9.10;;
67986;SDS011;54767;53.800;15.956;2023-08-20T14:01:22;11.60;;;8.50;;
67986;SDS011;54767;53.800;15.956;2023-08-20T14:03:50;10.20;;;8.30;;
67986;SDS011;54767;53.800;15.956;2023-08-20T14:06:22;11.60;;;9.00;;
67986;SDS011;54767;53.800;15.956;2023-08-20T14:08:50;10.90;;;8.90;;
67986;SDS011;54767;53.800;15.956;2023-08-20T14:11:25;10.80;;;8.60;;
67986;SDS011;54767;53.800;15.956;2023-08-20T14:14:15;9.70;;;8.70;;
67986;SDS011;54767;53.800;15.956;2023-08-20T14:16:43;10.10;;;8.70;;
67986;SDS011;54767;53.800;15.956;2023-08-20T14:19:10;9.80;;;8.30;;
67986;SDS011;54767;53.800;15.956;2023-08-20T14:21:37;8.90;;;8.00;;
67986;SDS011;54767;53.800;15.956;2023-08-20T14:24:05;9.40;;;7.80;;
67986;SDS011;54767;53.800;15.956;2023-08-20T14:26:32;8.80;;;7.70;;
67986;SDS011;54767;53.800;15.956;2023-08-20T14:28:59;9.30;;;8.00;;
67986;SDS011;54767;53.800;15.956;2023-08-20T14:31:26;9.90;;;7.50;;
67986;SDS011;54767;53.800;15.956;2023-08-20T14:33:54;8.90;;;7.40;;
67986;SDS011;54767;53.800;15.956;2023-08-20T14:36:21;9.40;;;7.70;;
67986;SDS011;54767;53.800;15.956;2023-08-20T14:38:48;9.20;;;7.50;;
67986;SDS011;54767;53.800;15.956;2023-08-20T14:41:15;8.90;;;7.80;;
67986;SDS011;54767;53.800;15.956;2023-08-20T14:43:42;8.30;;;7.00;;